Time;durP1;ratioP1;P1;durP2;ratioP2;P2;SDS_P1;SDS_P2;PMS_P1;PMS_P2;Temp;Humidity;BMP_temperature;BMP_pressure;BME280_temperature;BME280_humidity;BME280_pressure;Samples;Min_cycle;Max_cycle;Signal;HPM_P1;HPM_P2
2021/08/06 00:00:33;;;;;;;4.72;3.22;;;18.60;99.90;;;;;;5053520;28;20070;-81
2021/08/06 00:03:01;;;;;;;3.83;3.03;;;18.60;99.90;;;;;;5089584;28;20493;-80
2021/08/06 00:05:27;;;;;;;3.63;3.30;;;18.60;99.90;;;;;;5054878;28;20052;-80
2021/08/06 00:07:54;;;;;;;5.38;2.95;;;18.50;99.90;;;;;;5088838;28;20050;-80
2021/08/06 00:10:20;;;;;;;4.75;2.55;;;18.50;99.90;;;;;;5106768;28;20047;-80
2021/08/06 00:12:46;;;;;;;3.42;3.13;;;18.60;99.90;;;;;;5054891;28;20048;-81
2021/08/06 00:15:13;;;;;;;4.35;3.22;;;18.50;99.90;;;;;;5089032;28;20043;-80
2021/08/06 00:17:40;;;;;;;7.28;3.75;;;18.50;99.90;;;;;;5087887;28;20036;-81
2021/08/06 00:20:07;;;;;;;5.47;3.72;;;18.50;99.90;;;;;;5088295;28;20059;-81
2021/08/06 00:22:34;;;;;;;3.38;3.03;;;18.50;99.90;;;;;;5105499;27;20078;-81
2021/08/06 00:25:00;;;;;;;3.20;2.90;;;18.50;99.90;;;;;;5054565;28;20054;-81
2021/08/06 00:27:27;;;;;;;3.42;2.80;;;18.50;99.90;;;;;;5088290;28;20478;-81
2021/08/06 00:29:53;;;;;;;3.90;3.13;;;18.50;99.90;;;;;;5088141;28;20296;-80
2021/08/06 00:32:20;;;;;;;4.68;3.63;;;18.50;99.90;;;;;;5069702;28;20434;-80
2021/08/06 00:34:46;;;;;;;3.13;2.83;;;18.50;99.90;;;;;;5071130;28;20032;-80
2021/08/06 00:37:15;;;;;;;3.05;2.55;;;18.40;99.90;;;;;;5072170;28;20382;-80
2021/08/06 00:39:45;;;;;;;3.55;2.70;;;18.40;99.90;;;;;;5070869;28;20051;-81
2021/08/06 00:42:12;;;;;;;4.65;2.83;;;18.40;99.90;;;;;;5052227;28;20056;-80
2021/08/06 00:44:39;;;;;;;3.47;2.85;;;18.30;99.90;;;;;;5037745;28;20043;-81
2021/08/06 00:47:08;;;;;;;2.88;2.58;;;18.30;99.90;;;;;;5071575;28;20028;-80
2021/08/06 00:49:40;;;;;;;3.42;2.70;;;18.30;99.90;;;;;;5070537;28;20276;-80
2021/08/06 00:52:10;;;;;;;6.22;2.70;;;18.30;99.90;;;;;;5090504;28;20513;-81
2021/08/06 00:54:41;;;;;;;2.70;2.38;;;18.30;99.90;;;;;;5087002;28;20055;-81
2021/08/06 00:57:15;;;;;;;3.47;2.40;;;18.30;99.90;;;;;;5072498;28;20054;-81
2021/08/06 00:59:45;;;;;;;2.80;2.45;;;18.30;99.90;;;;;;5084647;28;20415;-80
2021/08/06 01:02:24;;;;;;;3.80;2.67;;;18.20;99.90;;;;;;5048711;28;20052;-81
2021/08/06 01:05:06;;;;;;;3.10;2.55;;;18.20;99.90;;;;;;5063798;28;20051;-80
2021/08/06 01:08:15;;;;;;;3.67;2.45;;;18.20;99.90;;;;;;5086012;28;20040;-80
2021/08/06 01:11:00;;;;;;;3.03;2.33;;;18.20;99.90;;;;;;5065756;28;20536;-80
2021/08/06 01:13:39;;;;;;;2.53;2.22;;;18.20;99.90;;;;;;5083228;28;20543;-80
2021/08/06 01:16:09;;;;;;;2.45;1.85;;;18.20;99.90;;;;;;5083117;28;20040;-80
2021/08/06 01:19:03;;;;;;;2.97;2.50;;;18.20;99.90;;;;;;5034662;28;20055;-81
2021/08/06 01:21:38;;;;;;;4.55;2.00;;;18.20;99.90;;;;;;5046375;28;20044;-80
2021/08/06 01:24:08;;;;;;;2.33;1.42;;;18.20;99.90;;;;;;5067849;28;20040;-80
2021/08/06 01:26:37;;;;;;;1.95;1.63;;;18.20;99.90;;;;;;5080872;28;20036;-80
2021/08/06 01:29:08;;;;;;;2.47;1.60;;;18.20;99.90;;;;;;5083701;28;20032;-80
2021/08/06 01:31:43;;;;;;;2.45;1.70;;;18.20;99.90;;;;;;5082515;28;20483;-82
2021/08/06 01:34:17;;;;;;;3.53;1.63;;;18.20;99.90;;;;;;5072660;28;20032;-81
2021/08/06 01:36:44;;;;;;;2.17;1.20;;;18.20;99.90;;;;;;5083572;28;20027;-81
2021/08/06 01:39:16;;;;;;;3.90;1.60;;;18.20;99.90;;;;;;5083798;28;20040;-81
2021/08/06 01:42:14;;;;;;;2.50;1.70;;;18.30;99.90;;;;;;5080817;28;20055;-81
2021/08/06 01:44:52;;;;;;;2.03;1.50;;;18.30;99.90;;;;;;5082470;28;20035;-81
2021/08/06 01:47:45;;;;;;;3.80;1.73;;;18.30;99.90;;;;;;5082932;28;20036;-81
2021/08/06 01:50:26;;;;;;;2.00;1.52;;;18.20;99.90;;;;;;5081712;28;20036;-80
2021/08/06 01:53:02;;;;;;;3.95;2.05;;;18.20;99.90;;;;;;5083815;28;20391;-80
2021/08/06 01:55:46;;;;;;;2.75;1.40;;;18.20;99.90;;;;;;5065134;28;20051;-80
2021/08/06 01:58:16;;;;;;;2.08;1.45;;;18.30;99.90;;;;;;5083918;28;20028;-80
2021/08/06 02:00:53;;;;;;;3.17;1.60;;;18.20;99.90;;;;;;5066696;28;20052;-81
2021/08/06 02:03:21;;;;;;;2.72;1.45;;;18.30;99.90;;;;;;5052240;28;20051;-80
2021/08/06 02:05:53;;;;;;;2.55;1.70;;;18.30;99.90;;;;;;5052622;28;20062;-80
2021/08/06 02:08:21;;;;;;;2.42;1.30;;;18.30;99.90;;;;;;5069065;28;20051;-80
2021/08/06 02:10:50;;;;;;;2.63;1.83;;;18.30;99.90;;;;;;5084691;28;20046;-80
2021/08/06 02:13:21;;;;;;;2.30;1.67;;;18.30;99.90;;;;;;5070889;28;20028;-80
2021/08/06 02:15:49;;;;;;;1.73;1.35;;;18.30;99.90;;;;;;5053131;28;20406;-80
2021/08/06 02:18:24;;;;;;;1.67;1.20;;;18.30;99.90;;;;;;5070088;28;20062;-80
2021/08/06 02:21:12;;;;;;;3.88;1.60;;;18.20;99.90;;;;;;5052914;28;20047;-80
2021/08/06 02:23:44;;;;;;;1.75;1.17;;;18.20;99.90;;;;;;5086496;28;20044;-81
2021/08/06 02:26:12;;;;;;;2.00;1.25;;;18.20;99.90;;;;;;5053032;28;20039;-80
2021/08/06 02:28:41;;;;;;;2.00;1.30;;;18.20;99.90;;;;;;5086524;28;20054;-80
2021/08/06 02:31:08;;;;;;;1.80;1.23;;;18.20;99.90;;;;;;5067109;28;20615;-80
2021/08/06 02:33:35;;;;;;;2.92;1.40;;;18.20;99.90;;;;;;5070169;28;20441;-80
2021/08/06 02:36:01;;;;;;;1.77;1.33;;;18.20;99.90;;;;;;5086275;28;20027;-80
2021/08/06 02:38:28;;;;;;;1.95;1.40;;;18.20;99.90;;;;;;5086792;28;20040;-80
2021/08/06 02:40:54;;;;;;;3.03;1.30;;;18.10;99.90;;;;;;5051212;28;20525;-80
2021/08/06 02:43:21;;;;;;;1.67;1.20;;;18.20;99.90;;;;;;5069940;28;20036;-80
2021/08/06 02:45:48;;;;;;;2.85;1.27;;;18.20;99.90;;;;;;5068973;28;20525;-80
2021/08/06 02:48:16;;;;;;;1.92;1.30;;;18.20;99.90;;;;;;5051887;28;20051;-81
2021/08/06 02:50:43;;;;;;;2.65;1.55;;;18.20;99.90;;;;;;5084409;28;20517;-75
2021/08/06 02:53:10;;;;;;;2.78;1.40;;;18.20;99.90;;;;;;5086143;28;20030;-76
2021/08/06 02:55:36;;;;;;;4.68;1.42;;;18.20;99.90;;;;;;5051765;28;20047;-76
2021/08/06 02:58:04;;;;;;;1.77;1.20;;;18.20;99.90;;;;;;5068965;28;20475;-76
2021/08/06 03:00:31;;;;;;;2.08;1.02;;;18.10;99.90;;;;;;5067279;28;20051;-76
2021/08/06 03:02:57;;;;;;;3.22;1.30;;;18.10;99.90;;;;;;5086117;28;20038;-76
2021/08/06 03:05:24;;;;;;;2.65;1.50;;;18.20;99.90;;;;;;5068292;28;20056;-76
2021/08/06 03:07:54;;;;;;;3.35;1.65;;;18.20;99.90;;;;;;5085561;28;20036;-76
2021/08/06 03:10:24;;;;;;;2.22;1.70;;;18.10;99.90;;;;;;5084873;28;20055;-76
2021/08/06 03:12:51;;;;;;;3.42;1.75;;;18.10;99.90;;;;;;5085293;28;20066;-76
2021/08/06 03:15:20;;;;;;;3.17;1.92;;;18.10;99.90;;;;;;5051980;28;20036;-76
2021/08/06 03:17:48;;;;;;;2.65;1.83;;;18.10;99.90;;;;;;5071917;28;20031;-76
2021/08/06 03:20:19;;;;;;;3.10;1.60;;;18.10;99.90;;;;;;5072141;28;20494;-76
2021/08/06 03:22:50;;;;;;;2.42;1.45;;;18.10;99.90;;;;;;5072402;28;20044;-76
2021/08/06 03:25:19;;;;;;;3.13;1.85;;;18.10;99.90;;;;;;5088978;28;20039;-76
2021/08/06 03:27:46;;;;;;;3.63;1.65;;;18.20;99.90;;;;;;5072774;28;20039;-75
2021/08/06 03:30:15;;;;;;;2.15;1.50;;;18.20;99.90;;;;;;5072395;28;20056;-76
2021/08/06 03:32:42;;;;;;;2.78;1.52;;;18.20;99.90;;;;;;5087324;28;20032;-76
2021/08/06 03:35:10;;;;;;;3.22;1.45;;;18.20;99.90;;;;;;5088966;28;20043;-76
2021/08/06 03:37:37;;;;;;;2.28;1.25;;;18.20;99.90;;;;;;5039190;28;21390;-76
2021/08/06 03:40:06;;;;;;;2.92;1.48;;;18.20;99.90;;;;;;5089252;28;20343;-76
2021/08/06 03:42:32;;;;;;;3.80;1.50;;;18.30;99.90;;;;;;5070846;28;20051;-76
2021/08/06 03:44:59;;;;;;;1.90;1.38;;;18.20;99.90;;;;;;5088636;28;20042;-76
2021/08/06 03:47:25;;;;;;;2.10;1.45;;;18.20;99.90;;;;;;5089138;28;20031;-76
2021/08/06 03:49:52;;;;;;;1.75;1.40;;;18.30;99.90;;;;;;5088858;28;20035;-76
2021/08/06 03:52:18;;;;;;;2.28;1.58;;;18.20;99.90;;;;;;5087216;28;20043;-75
2021/08/06 03:54:45;;;;;;;3.60;1.60;;;18.20;99.90;;;;;;5068884;28;20052;-74
2021/08/06 03:57:11;;;;;;;3.17;1.30;;;18.20;99.90;;;;;;5091311;28;20478;-74
2021/08/06 03:59:39;;;;;;;1.90;1.23;;;18.20;99.90;;;;;;5088426;28;20052;-74
2021/08/06 04:02:07;;;;;;;1.92;1.48;;;18.20;99.90;;;;;;5069606;28;20043;-75
2021/08/06 04:04:33;;;;;;;2.92;1.45;;;18.20;99.90;;;;;;5088855;28;20082;-74
2021/08/06 04:07:00;;;;;;;4.25;1.13;;;18.30;99.90;;;;;;5071612;28;20496;-75
2021/08/06 04:09:26;;;;;;;3.88;1.75;;;18.20;99.90;;;;;;5053628;28;20040;-75
2021/08/06 04:11:52;;;;;;;3.60;1.42;;;18.30;99.90;;;;;;5087098;28;20039;-80
2021/08/06 04:14:19;;;;;;;5.50;1.33;;;18.30;99.90;;;;;;5089137;28;20050;-80
2021/08/06 04:16:48;;;;;;;3.92;1.45;;;18.30;99.90;;;;;;5088975;28;20502;-79
2021/08/06 04:19:15;;;;;;;2.33;1.23;;;18.20;99.90;;;;;;5071096;28;20075;-79
2021/08/06 04:21:42;;;;;;;2.55;1.10;;;18.20;99.90;;;;;;5086796;28;20043;-78
2021/08/06 04:24:09;;;;;;;2.03;1.20;;;18.10;99.90;;;;;;5071930;28;20635;-79
2021/08/06 04:26:36;;;;;;;2.25;1.00;;;18.10;99.90;;;;;;5080083;28;20040;-79
2021/08/06 04:29:02;;;;;;;2.53;1.20;;;18.00;99.90;;;;;;5071368;28;20028;-79
2021/08/06 04:31:30;;;;;;;2.30;1.70;;;17.90;99.90;;;;;;5037144;28;20043;-79
2021/08/06 04:33:56;;;;;;;1.40;0.95;;;17.90;99.90;;;;;;5088475;28;20043;-79
2021/08/06 04:36:23;;;;;;;2.05;1.00;;;17.80;99.90;;;;;;5070819;28;20394;-79
2021/08/06 04:38:49;;;;;;;2.22;1.08;;;17.80;99.90;;;;;;5087865;28;20039;-79
2021/08/06 04:41:16;;;;;;;2.95;1.55;;;17.80;99.90;;;;;;5085938;28;20046;-79
2021/08/06 04:43:42;;;;;;;2.30;1.33;;;17.80;99.90;;;;;;5071566;28;20035;-79
2021/08/06 04:46:09;;;;;;;2.90;1.08;;;17.70;99.90;;;;;;5070993;28;21033;-79
2021/08/06 04:48:35;;;;;;;3.78;1.00;;;17.80;99.90;;;;;;5088557;28;20062;-79
2021/08/06 04:51:03;;;;;;;1.35;0.82;;;17.80;99.90;;;;;;5087411;28;20043;-79
2021/08/06 04:53:31;;;;;;;3.17;1.50;;;17.70;99.90;;;;;;5070959;28;20473;-79
2021/08/06 04:55:58;;;;;;;3.05;1.33;;;17.80;99.90;;;;;;5070300;28;20036;-79
2021/08/06 04:58:25;;;;;;;1.98;1.33;;;17.80;99.90;;;;;;5071492;28;20043;-79
2021/08/06 05:00:52;;;;;;;1.95;1.25;;;17.80;99.90;;;;;;5052019;28;20050;-79
2021/08/06 05:03:22;;;;;;;4.55;1.13;;;17.80;99.90;;;;;;5054571;28;20071;-79
2021/08/06 05:05:52;;;;;;;2.13;1.17;;;17.80;99.90;;;;;;5053707;28;20057;-79
2021/08/06 05:08:19;;;;;;;2.53;1.45;;;17.80;99.90;;;;;;5071248;28;20066;-79
2021/08/06 05:10:45;;;;;;;2.03;1.50;;;17.90;99.90;;;;;;5068720;28;20063;-79
2021/08/06 05:13:12;;;;;;;2.70;1.58;;;17.90;99.90;;;;;;5071112;28;20047;-79
2021/08/06 05:15:39;;;;;;;1.90;1.17;;;17.90;99.90;;;;;;5062114;28;20035;-79
2021/08/06 05:18:07;;;;;;;2.67;1.50;;;17.90;99.90;;;;;;5071320;28;20035;-79
2021/08/06 05:20:35;;;;;;;2.35;1.50;;;17.90;99.90;;;;;;5085299;28;20047;-79
2021/08/06 05:23:03;;;;;;;3.20;1.38;;;17.90;99.90;;;;;;5072928;28;20043;-79
2021/08/06 05:25:30;;;;;;;4.00;1.45;;;17.90;99.90;;;;;;5069771;28;20403;-79
2021/08/06 05:27:56;;;;;;;3.53;1.50;;;18.00;99.90;;;;;;5105656;28;20046;-79
2021/08/06 05:30:23;;;;;;;2.28;1.05;;;18.00;99.90;;;;;;5073247;28;20032;-79
2021/08/06 05:32:51;;;;;;;2.17;1.27;;;18.00;99.90;;;;;;5070138;28;20222;-79
2021/08/06 05:35:19;;;;;;;1.83;1.10;;;18.10;99.90;;;;;;5086726;28;20132;-79
2021/08/06 05:37:47;;;;;;;2.83;1.27;;;18.10;99.90;;;;;;5070851;28;20507;-80
2021/08/06 05:40:14;;;;;;;3.20;1.52;;;18.10;99.90;;;;;;5070614;28;20035;-78
2021/08/06 05:42:41;;;;;;;2.47;1.48;;;18.10;99.90;;;;;;5069104;28;20404;-77
2021/08/06 05:45:10;;;;;;;3.17;1.88;;;18.20;99.90;;;;;;5069942;28;20047;-76
2021/08/06 05:47:42;;;;;;;2.45;1.48;;;18.10;99.90;;;;;;5086410;28;20503;-76
2021/08/06 05:50:10;;;;;;;2.92;1.40;;;18.20;99.90;;;;;;5087276;28;20030;-76
2021/08/06 05:52:36;;;;;;;1.80;1.20;;;18.20;99.90;;;;;;5068020;28;20054;-77
2021/08/06 05:55:03;;;;;;;3.22;1.33;;;18.20;99.90;;;;;;5057339;28;20027;-78
2021/08/06 05:57:30;;;;;;;3.58;1.60;;;18.20;99.90;;;;;;5069364;28;20048;-75
2021/08/06 05:59:57;;;;;;;1.90;1.50;;;18.30;99.90;;;;;;5053383;28;20054;-77
2021/08/06 06:02:24;;;;;;;1.83;1.23;;;18.30;99.90;;;;;;5049641;28;20058;-74
2021/08/06 06:05:00;;;;;;;4.00;3.13;;;18.30;99.90;;;;;;5084772;28;20031;-75
2021/08/06 06:07:27;;;;;;;7.45;6.50;;;18.30;99.90;;;;;;5069747;28;20046;-74
2021/08/06 06:09:53;;;;;;;6.10;3.60;;;18.30;99.90;;;;;;5069997;28;20039;-77
2021/08/06 06:12:20;;;;;;;3.22;2.58;;;18.30;99.90;;;;;;5068548;28;20040;-77
2021/08/06 06:14:46;;;;;;;3.97;3.03;;;18.30;99.90;;;;;;5086051;28;20027;-77
2021/08/06 06:17:13;;;;;;;5.10;3.33;;;18.30;99.90;;;;;;5068879;28;20047;-77
2021/08/06 06:19:44;;;;;;;3.58;2.45;;;18.30;99.90;;;;;;5086347;28;20039;-77
2021/08/06 06:22:11;;;;;;;4.32;2.75;;;18.40;99.90;;;;;;5066399;28;20043;-77
2021/08/06 06:24:37;;;;;;;2.80;1.83;;;18.40;99.90;;;;;;5069299;28;20040;-77
2021/08/06 06:27:06;;;;;;;2.22;1.70;;;18.50;99.90;;;;;;5069593;28;20039;-77
2021/08/06 06:29:33;;;;;;;2.38;1.77;;;18.50;99.90;;;;;;5069529;28;20035;-78
2021/08/06 06:31:59;;;;;;;2.95;2.33;;;18.50;99.90;;;;;;5083139;28;20040;-75
2021/08/06 06:34:27;;;;;;;2.88;2.40;;;18.50;99.90;;;;;;5068786;28;20058;-74
2021/08/06 06:36:54;;;;;;;3.60;2.15;;;18.50;99.90;;;;;;5069174;28;20036;-75
2021/08/06 06:39:20;;;;;;;5.03;4.53;;;18.40;99.90;;;;;;5069242;28;20028;-75
2021/08/06 06:41:46;;;;;;;3.33;2.65;;;18.30;99.90;;;;;;5102498;28;20314;-74
2021/08/06 06:44:25;;;;;;;3.67;2.80;;;18.30;99.90;;;;;;5054568;28;20039;-75
2021/08/06 06:46:51;;;;;;;2.95;1.75;;;18.20;99.90;;;;;;5085296;28;20562;-74
2021/08/06 06:49:18;;;;;;;2.97;1.58;;;18.20;99.90;;;;;;5085786;28;20031;-75
2021/08/06 06:51:44;;;;;;;1.95;1.30;;;18.20;99.90;;;;;;5103415;28;20042;-77
2021/08/06 06:54:11;;;;;;;2.45;1.27;;;18.20;99.90;;;;;;5078403;28;20047;-78
2021/08/06 06:56:37;;;;;;;2.70;1.25;;;18.30;99.90;;;;;;5071693;28;20035;-77
2021/08/06 06:59:04;;;;;;;2.40;1.20;;;18.20;99.90;;;;;;5089839;28;20027;-78
2021/08/06 07:01:31;;;;;;;3.63;1.77;;;18.30;99.90;;;;;;5071379;28;20043;-77
2021/08/06 07:03:58;;;;;;;3.13;2.03;;;18.40;99.90;;;;;;5055533;28;20046;-77
2021/08/06 07:06:27;;;;;;;2.17;1.38;;;18.40;99.90;;;;;;5088179;28;20042;-78
2021/08/06 07:08:53;;;;;;;2.30;1.70;;;18.50;99.90;;;;;;5089412;28;20035;-77
2021/08/06 07:11:20;;;;;;;2.05;1.30;;;18.70;99.90;;;;;;5053678;28;20040;-78
2021/08/06 07:13:47;;;;;;;2.13;1.20;;;18.90;99.90;;;;;;5072715;28;20035;-78
2021/08/06 07:16:13;;;;;;;2.08;1.30;;;18.90;99.90;;;;;;5071786;28;20403;-77
2021/08/06 07:18:43;;;;;;;2.28;1.45;;;19.10;99.90;;;;;;5076830;28;20046;-77
2021/08/06 07:21:12;;;;;;;1.67;1.30;;;19.40;99.90;;;;;;5071053;28;20425;-77
2021/08/06 07:23:40;;;;;;;1.80;1.30;;;19.60;99.90;;;;;;5074854;28;20042;-77
2021/08/06 07:26:07;;;;;;;2.15;1.55;;;19.80;99.90;;;;;;5090953;28;20058;-77
2021/08/06 07:28:36;;;;;;;1.85;1.60;;;19.90;99.90;;;;;;5087846;28;20032;-76
2021/08/06 07:31:03;;;;;;;6.00;1.52;;;20.00;99.90;;;;;;5068772;28;20066;-76
2021/08/06 07:33:30;;;;;;;2.85;1.95;;;20.10;99.90;;;;;;5089212;28;20027;-77
2021/08/06 07:35:57;;;;;;;2.17;1.98;;;20.20;99.90;;;;;;5088072;28;20040;-77
2021/08/06 07:38:23;;;;;;;2.45;1.92;;;20.30;99.90;;;;;;5107447;28;20034;-77
2021/08/06 07:40:49;;;;;;;2.38;2.10;;;20.30;99.90;;;;;;5082244;28;20034;-77
2021/08/06 07:43:16;;;;;;;2.10;1.90;;;20.30;99.90;;;;;;5088584;28;20043;-78
2021/08/06 07:45:46;;;;;;;3.10;2.80;;;20.20;99.90;;;;;;5088961;28;20520;-77
2021/08/06 07:48:14;;;;;;;3.00;2.80;;;20.10;99.90;;;;;;5071481;28;20082;-79
2021/08/06 07:50:41;;;;;;;3.38;2.67;;;20.00;99.90;;;;;;5086841;28;20051;-76
2021/08/06 07:53:08;;;;;;;2.90;2.60;;;19.90;99.90;;;;;;5089446;28;20028;-78
2021/08/06 07:55:35;;;;;;;3.97;2.83;;;19.90;99.90;;;;;;5072405;28;20043;-79
2021/08/06 07:58:02;;;;;;;2.97;2.33;;;19.80;99.90;;;;;;5087499;28;20043;-78
2021/08/06 08:00:28;;;;;;;3.67;3.33;;;19.90;99.90;;;;;;5070039;28;20067;-77
2021/08/06 08:02:55;;;;;;;3.63;2.92;;;19.80;99.90;;;;;;5084481;28;21410;-78
2021/08/06 08:05:27;;;;;;;3.45;3.15;;;19.80;99.90;;;;;;5068866;28;20047;-77
2021/08/06 08:08:01;;;;;;;4.40;3.55;;;19.90;99.90;;;;;;5070883;28;20044;-78
2021/08/06 08:10:35;;;;;;;4.47;3.80;;;20.10;99.90;;;;;;5069767;28;20504;-78
2021/08/06 08:13:03;;;;;;;3.40;3.10;;;20.20;99.90;;;;;;5046002;28;20047;-78
2021/08/06 08:15:30;;;;;;;3.85;3.50;;;20.30;99.90;;;;;;5068132;27;20036;-78
2021/08/06 08:17:57;;;;;;;6.82;4.32;;;20.40;99.90;;;;;;5090944;28;20047;-78
2021/08/06 08:20:23;;;;;;;3.33;3.03;;;20.60;99.90;;;;;;5053781;28;20050;-78
2021/08/06 08:22:51;;;;;;;5.20;4.43;;;20.70;99.90;;;;;;5071471;28;20049;-79
2021/08/06 08:25:17;;;;;;;4.20;3.80;;;20.80;99.90;;;;;;5071499;28;20043;-78
2021/08/06 08:27:44;;;;;;;4.13;3.00;;;20.90;99.90;;;;;;5087609;28;20470;-78
2021/08/06 08:30:11;;;;;;;4.72;3.70;;;20.90;99.90;;;;;;5087719;28;20031;-78
2021/08/06 08:32:38;;;;;;;5.15;3.38;;;21.00;99.90;;;;;;5085215;28;20565;-77
2021/08/06 08:35:06;;;;;;;3.78;3.03;;;21.00;99.90;;;;;;5069712;28;20032;-77
2021/08/06 08:37:33;;;;;;;3.15;2.60;;;20.90;99.90;;;;;;5071341;28;20027;-77
2021/08/06 08:39:59;;;;;;;4.55;3.65;;;20.80;99.90;;;;;;5087174;28;20793;-77
2021/08/06 08:42:29;;;;;;;4.32;3.92;;;20.90;99.90;;;;;;5085404;28;20046;-77
2021/08/06 08:45:03;;;;;;;6.03;3.75;;;20.90;99.90;;;;;;5069171;28;20035;-78
2021/08/06 08:47:33;;;;;;;4.75;3.10;;;20.80;99.90;;;;;;5086892;28;20040;-77
2021/08/06 08:50:04;;;;;;;3.53;2.95;;;20.80;99.90;;;;;;5104870;28;20040;-77
2021/08/06 08:52:32;;;;;;;4.10;2.73;;;20.60;99.90;;;;;;5083776;28;20040;-76
2021/08/06 08:54:59;;;;;;;4.18;2.80;;;20.60;99.90;;;;;;5069557;28;20772;-76
2021/08/06 08:57:26;;;;;;;5.90;3.00;;;20.80;99.90;;;;;;5086769;27;20039;-74
2021/08/06 08:59:55;;;;;;;6.00;3.05;;;21.00;99.90;;;;;;5108049;27;20042;-73
2021/08/06 09:02:24;;;;;;;6.25;3.15;;;21.30;99.90;;;;;;5074725;28;20032;-74
2021/08/06 09:05:14;;;;;;;5.93;3.53;;;21.60;99.90;;;;;;5073230;28;20398;-74
2021/08/06 09:07:49;;;;;;;5.10;2.33;;;22.00;99.90;;;;;;5085990;28;20035;-74
2021/08/06 09:10:41;;;;;;;2.45;1.60;;;22.40;99.90;;;;;;5093133;28;20056;-74
2021/08/06 09:13:10;;;;;;;2.85;1.80;;;22.80;99.90;;;;;;5087479;28;20046;-73
2021/08/06 09:15:59;;;;;;;3.95;1.80;;;22.90;99.90;;;;;;5102982;28;20054;-76
2021/08/06 09:18:36;;;;;;;2.40;1.60;;;22.90;99.90;;;;;;5086004;28;20028;-75
2021/08/06 09:21:15;;;;;;;4.70;1.65;;;22.80;99.90;;;;;;5102737;27;20102;-77
2021/08/06 09:23:49;;;;;;;3.72;1.52;;;22.80;99.90;;;;;;5087524;28;20039;-75
2021/08/06 09:26:43;;;;;;;3.33;1.73;;;22.80;99.90;;;;;;5112539;28;20027;-77
2021/08/06 09:29:21;;;;;;;3.47;1.88;;;23.10;99.90;;;;;;5085752;28;20489;-74
2021/08/06 09:31:51;;;;;;;3.80;1.63;;;23.30;99.90;;;;;;5065024;28;20047;-74
2021/08/06 09:34:24;;;;;;;3.85;1.17;;;23.30;99.50;;;;;;5085022;28;20047;-74
2021/08/06 09:37:06;;;;;;;2.78;1.23;;;23.10;99.30;;;;;;5084868;28;20043;-74
2021/08/06 09:39:48;;;;;;;4.60;1.50;;;22.90;99.20;;;;;;5085626;28;20019;-74
2021/08/06 09:42:26;;;;;;;3.60;1.58;;;22.70;99.30;;;;;;5071760;28;20424;-76
2021/08/06 09:45:03;;;;;;;1.88;0.73;;;22.80;99.10;;;;;;5085471;28;20036;-76
2021/08/06 09:47:31;;;;;;;2.15;1.30;;;22.80;98.50;;;;;;5086689;28;20071;-77
2021/08/06 09:50:00;;;;;;;3.65;0.90;;;22.80;98.40;;;;;;5071101;28;20833;-80
2021/08/06 09:52:32;;;;;;;2.90;0.98;;;22.60;98.70;;;;;;5083470;28;20410;-77
2021/08/06 09:55:00;;;;;;;3.45;1.30;;;22.50;98.70;;;;;;5067052;28;20402;-78
2021/08/06 09:57:27;;;;;;;2.25;0.90;;;22.40;98.30;;;;;;5103261;28;20510;-78
2021/08/06 09:59:57;;;;;;;1.83;0.80;;;22.30;98.30;;;;;;5103225;28;20069;-77
2021/08/06 10:02:31;;;;;;;1.38;0.73;;;22.30;98.40;;;;;;5082921;28;20031;-76
2021/08/06 10:05:02;;;;;;;1.73;0.70;;;22.50;98.30;;;;;;5104667;28;20044;-80
2021/08/06 10:07:43;;;;;;;1.60;0.63;;;22.70;98.00;;;;;;5105720;28;20043;-78
2021/08/06 10:10:37;;;;;;;4.07;0.85;;;22.80;97.90;;;;;;5104104;28;20035;-78
2021/08/06 10:13:05;;;;;;;2.75;0.70;;;23.00;97.50;;;;;;5087174;28;20054;-77
2021/08/06 10:15:32;;;;;;;1.88;0.70;;;23.00;97.10;;;;;;5069128;28;20032;-77
2021/08/06 10:18:00;;;;;;;2.15;0.60;;;22.80;96.80;;;;;;5085898;28;20031;-77
2021/08/06 10:20:28;;;;;;;2.03;0.70;;;22.60;96.70;;;;;;5084031;28;20510;-78
2021/08/06 10:22:55;;;;;;;3.40;0.90;;;22.40;96.90;;;;;;5068865;28;20039;-78
2021/08/06 10:25:24;;;;;;;2.58;1.00;;;22.10;97.80;;;;;;5069119;28;20479;-78
2021/08/06 10:27:51;;;;;;;2.45;0.90;;;21.80;98.80;;;;;;5085968;28;20596;-79
2021/08/06 10:30:29;;;;;;;4.57;0.98;;;21.70;99.60;;;;;;5088501;28;20391;-77
2021/08/06 10:33:07;;;;;;;3.38;0.90;;;21.70;99.90;;;;;;5104185;28;20042;-76
2021/08/06 10:35:43;;;;;;;2.83;1.15;;;21.70;99.90;;;;;;5085358;28;20039;-78
2021/08/06 10:38:10;;;;;;;2.45;1.10;;;21.80;99.90;;;;;;5085432;28;20043;-79
2021/08/06 10:40:39;;;;;;;4.32;1.08;;;22.10;99.90;;;;;;5102158;28;20030;-77
2021/08/06 10:43:08;;;;;;;2.45;0.85;;;22.30;99.90;;;;;;5102670;28;20042;-77
2021/08/06 10:45:53;;;;;;;3.17;0.80;;;22.60;99.90;;;;;;5067714;28;20052;-78
2021/08/06 10:48:33;;;;;;;3.10;0.93;;;22.90;99.50;;;;;;5066580;28;20042;-78
2021/08/06 10:51:15;;;;;;;5.63;0.85;;;23.00;99.20;;;;;;5102022;28;20050;-77
2021/08/06 10:53:46;;;;;;;1.42;0.80;;;23.20;99.00;;;;;;5085573;28;20048;-78
2021/08/06 10:56:24;;;;;;;2.30;0.80;;;23.50;98.30;;;;;;5085377;28;20035;-77
2021/08/06 10:58:53;;;;;;;3.00;0.70;;;23.90;97.40;;;;;;5071545;28;20043;-78
2021/08/06 11:01:32;;;;;;;1.50;0.70;;;24.00;96.70;;;;;;5084886;28;20085;-80
2021/08/06 11:04:15;;;;;;;1.90;0.60;;;24.20;96.40;;;;;;5100253;28;20046;-79
2021/08/06 11:06:49;;;;;;;2.17;0.80;;;24.20;95.80;;;;;;5067602;28;20043;-80
2021/08/06 11:09:25;;;;;;;3.90;0.60;;;24.50;95.70;;;;;;5084989;28;20032;-75
2021/08/06 11:12:02;;;;;;;3.72;0.95;;;24.80;94.70;;;;;;5066022;28;20086;-74
2021/08/06 11:14:29;;;;;;;1.27;0.50;;;24.80;94.10;;;;;;5081103;28;20394;-77
2021/08/06 11:17:14;;;;;;;1.80;0.60;;;24.60;93.70;;;;;;5067431;28;20027;-76
2021/08/06 11:19:48;;;;;;;2.13;0.70;;;24.40;93.60;;;;;;5056354;28;20849;-76
2021/08/06 11:22:18;;;;;;;2.20;0.70;;;24.30;93.90;;;;;;5049330;28;20043;-76
2021/08/06 11:24:46;;;;;;;1.98;0.73;;;24.80;94.50;;;;;;5080274;28;20043;-77
2021/08/06 11:27:15;;;;;;;1.50;0.63;;;25.10;93.60;;;;;;5062968;28;20050;-77
2021/08/06 11:29:43;;;;;;;1.17;0.60;;;25.30;92.90;;;;;;5101568;28;20032;-76
2021/08/06 11:32:11;;;;;;;1.17;0.30;;;25.80;93.30;;;;;;5082177;28;20042;-77
2021/08/06 11:34:59;;;;;;;2.00;0.50;;;26.20;92.40;;;;;;5079220;28;20051;-77
2021/08/06 11:37:45;;;;;;;1.75;0.40;;;26.50;90.90;;;;;;5103250;28;20024;-76
2021/08/06 11:40:13;;;;;;;1.02;0.40;;;26.70;90.30;;;;;;5070339;28;20058;-76
2021/08/06 11:42:40;;;;;;;0.70;0.40;;;27.10;88.00;;;;;;5084403;28;20050;-76
2021/08/06 11:45:14;;;;;;;1.73;0.43;;;27.30;86.60;;;;;;5053627;28;20085;-76
2021/08/06 11:47:44;;;;;;;1.77;0.50;;;27.70;83.90;;;;;;5086572;28;20032;-76
2021/08/06 11:50:17;;;;;;;1.38;0.40;;;27.50;85.30;;;;;;5086720;28;20067;-76
2021/08/06 11:52:50;;;;;;;1.92;0.52;;;27.30;85.70;;;;;;5067775;28;20054;-76
2021/08/06 11:55:20;;;;;;;1.55;0.50;;;27.20;85.30;;;;;;5068003;28;20042;-76
2021/08/06 11:57:46;;;;;;;0.77;0.40;;;27.00;84.50;;;;;;5086862;28;20028;-75
2021/08/06 12:00:16;;;;;;;1.25;0.50;;;26.70;83.70;;;;;;5105490;28;20032;-75
2021/08/06 12:02:43;;;;;;;1.13;0.40;;;26.40;83.60;;;;;;5084274;28;20043;-75
2021/08/06 12:05:23;;;;;;;3.13;0.40;;;26.30;84.10;;;;;;5104689;28;20467;-74
2021/08/06 12:07:49;;;;;;;2.45;0.40;;;26.70;84.70;;;;;;5051783;28;20054;-75
2021/08/06 12:10:16;;;;;;;2.13;0.30;;;27.20;82.70;;;;;;5085925;28;20031;-75
2021/08/06 12:12:43;;;;;;;1.08;0.30;;;27.50;81.10;;;;;;5104786;27;20047;-75
2021/08/06 12:15:24;;;;;;;1.95;0.40;;;27.40;80.90;;;;;;5104048;28;20039;-75
2021/08/06 12:18:19;;;;;;;0.85;0.38;;;27.00;80.10;;;;;;5085688;28;20051;-75
2021/08/06 12:20:54;;;;;;;1.95;0.30;;;26.30;81.30;;;;;;5084701;28;20656;-75
2021/08/06 12:23:21;;;;;;;1.25;0.35;;;25.70;82.60;;;;;;5087611;28;20032;-75
2021/08/06 12:26:02;;;;;;;1.75;0.40;;;25.40;83.80;;;;;;5104935;28;20038;-74
2021/08/06 12:28:30;;;;;;;1.95;0.40;;;25.10;83.90;;;;;;5087522;28;20043;-75
2021/08/06 12:31:09;;;;;;;1.55;0.40;;;25.00;84.10;;;;;;5068630;28;20035;-75
2021/08/06 12:33:37;;;;;;;4.78;0.60;;;24.80;85.00;;;;;;5087057;28;20060;-74
2021/08/06 12:36:15;;;;;;;1.00;0.50;;;24.50;86.50;;;;;;5086395;28;20031;-74
2021/08/06 12:38:42;;;;;;;0.98;0.40;;;24.10;90.30;;;;;;5087105;28;20032;-74
2021/08/06 12:41:09;;;;;;;2.55;0.50;;;23.70;91.90;;;;;;5104232;28;20035;-74
2021/08/06 12:43:36;;;;;;;0.52;0.30;;;23.70;93.30;;;;;;5086961;28;20878;-74
2021/08/06 12:46:10;;;;;;;1.77;0.30;;;24.20;93.20;;;;;;5105338;28;20046;-75
2021/08/06 12:48:56;;;;;;;0.60;0.30;;;24.70;92.60;;;;;;5087248;28;20036;-75
2021/08/06 12:51:23;;;;;;;0.68;0.30;;;25.00;92.20;;;;;;5081687;28;20048;-75
2021/08/06 12:53:49;;;;;;;1.00;0.20;;;25.80;91.90;;;;;;5087900;28;20051;-75
2021/08/06 12:56:15;;;;;;;0.80;0.20;;;26.80;91.00;;;;;;5087138;28;20035;-75
2021/08/06 12:58:43;;;;;;;0.98;0.30;;;27.80;87.80;;;;;;5070525;28;20097;-75
2021/08/06 13:01:09;;;;;;;1.05;0.20;;;28.80;85.50;;;;;;5085140;28;20364;-75
2021/08/06 13:03:43;;;;;;;3.50;0.30;;;29.70;82.00;;;;;;5103643;28;20047;-75